Terminal Aerodrome Forecast
Issued by NWS

Home | Current Version | Previous Version | Text Only | Print | Product List | Glossary On
Versions: 1 2 3 4 5 6 7 8 9 10 11 12
000
FTUS44 KTSA 141100
TAFMLC
TAF
KMLC 141120Z 1412/1512 20004KT P6SM BKN110
     FM141800 26008KT P6SM BKN150
     FM150000 02005KT P6SM BKN150
     FM150500 01006KT P6SM SKC=

USA.gov is the U.S. government's official web portal to all federal, state and local government web resources and services.